Time;durP1;ratioP1;P1;durP2;ratioP2;P2;SDS_P1;SDS_P2;PMS_P1;PMS_P2;Temp;Humidity;BMP_temperature;BMP_pressure;BME280_temperature;BME280_humidity;BME280_pressure;Samples;Min_cycle;Max_cycle;Signal;HPM_P1;HPM_P2
2022/03/26 00:00:30;;;;;;;41.80;21.88;;;8.50;58.20;;;;;;5037133;28;20033;-78
2022/03/26 00:02:56;;;;;;;38.60;21.10;;;8.50;58.30;;;;;;5034422;28;20038;-79
2022/03/26 00:05:22;;;;;;;34.50;19.63;;;8.40;58.40;;;;;;5036428;28;20025;-79
2022/03/26 00:07:48;;;;;;;33.33;19.27;;;8.30;58.60;;;;;;5042053;28;20021;-79
2022/03/26 00:10:15;;;;;;;31.42;18.52;;;8.20;59.40;;;;;;5054022;28;20052;-78
2022/03/26 00:12:41;;;;;;;33.90;20.10;;;8.20;59.10;;;;;;5038843;28;20025;-79
2022/03/26 00:15:08;;;;;;;35.53;19.67;;;8.20;59.30;;;;;;5041508;28;20029;-78
2022/03/26 00:17:34;;;;;;;29.35;17.80;;;8.10;59.60;;;;;;5052116;28;20029;-81
2022/03/26 00:20:00;;;;;;;31.88;19.05;;;8.10;59.80;;;;;;5055129;28;20028;-78
2022/03/26 00:22:26;;;;;;;33.00;17.95;;;8.00;60.00;;;;;;5060294;28;20097;-80
2022/03/26 00:24:52;;;;;;;27.75;16.80;;;8.00;60.20;;;;;;5067450;28;20054;-82
2022/03/26 00:27:18;;;;;;;27.92;15.93;;;7.90;60.40;;;;;;5070861;28;20052;-79
2022/03/26 00:29:45;;;;;;;28.67;16.60;;;7.90;60.70;;;;;;5065192;28;20021;-79
2022/03/26 00:32:11;;;;;;;26.58;15.63;;;8.00;60.70;;;;;;5062689;28;20033;-79
2022/03/26 00:34:38;;;;;;;25.65;14.98;;;7.90;60.70;;;;;;5064858;28;20021;-79
2022/03/26 00:37:04;;;;;;;28.45;15.80;;;8.00;60.70;;;;;;5063113;28;20393;-78
2022/03/26 00:39:30;;;;;;;30.10;17.48;;;8.00;60.60;;;;;;5064201;28;20045;-77
2022/03/26 00:41:55;;;;;;;31.08;17.42;;;7.90;60.70;;;;;;5065635;28;20033;-77
2022/03/26 00:44:21;;;;;;;31.38;17.98;;;7.90;60.90;;;;;;5063702;28;20025;-78
2022/03/26 00:46:47;;;;;;;32.83;18.20;;;7.80;61.20;;;;;;5068929;28;20056;-78
2022/03/26 00:49:18;;;;;;;27.48;17.40;;;7.80;61.50;;;;;;5063623;28;20092;-78
2022/03/26 00:51:44;;;;;;;31.15;17.83;;;7.70;61.70;;;;;;5067063;28;20053;-78
2022/03/26 00:54:12;;;;;;;31.85;18.33;;;7.60;61.90;;;;;;5051238;28;20030;-79
2022/03/26 00:56:39;;;;;;;26.50;15.80;;;7.60;62.10;;;;;;5065322;28;20024;-78
2022/03/26 00:59:05;;;;;;;29.00;16.73;;;7.60;62.20;;;;;;5069106;28;20047;-77
2022/03/26 01:01:32;;;;;;;33.80;17.63;;;7.50;62.20;;;;;;5065384;28;20371;-78
2022/03/26 01:03:59;;;;;;;40.92;22.33;;;7.50;62.30;;;;;;5080331;28;20055;-77
2022/03/26 01:06:25;;;;;;;43.15;24.20;;;7.50;62.40;;;;;;5063678;28;20021;-78
2022/03/26 01:08:51;;;;;;;43.83;24.00;;;7.40;62.40;;;;;;5063082;28;20063;-79
2022/03/26 01:11:17;;;;;;;50.28;24.23;;;7.30;62.80;;;;;;5068279;28;20029;-78
2022/03/26 01:13:44;;;;;;;47.95;23.83;;;7.20;63.20;;;;;;5070175;28;20028;-78
2022/03/26 01:16:12;;;;;;;37.90;22.63;;;7.10;63.40;;;;;;5070909;28;20073;-77
2022/03/26 01:18:39;;;;;;;42.40;22.40;;;7.00;63.70;;;;;;5070214;28;20032;-81
2022/03/26 01:21:04;;;;;;;44.30;23.02;;;6.90;63.90;;;;;;5071745;28;20013;-77
2022/03/26 01:23:39;;;;;;;44.95;23.58;;;6.90;64.00;;;;;;5060209;28;20018;-79
2022/03/26 01:26:05;;;;;;;41.00;22.23;;;6.90;64.20;;;;;;5050554;28;20044;-78
2022/03/26 01:28:34;;;;;;;43.95;23.42;;;6.80;64.30;;;;;;5049023;28;20030;-80
2022/03/26 01:31:00;;;;;;;42.22;22.52;;;6.80;64.30;;;;;;5048844;28;20033;-78
2022/03/26 01:33:29;;;;;;;48.38;23.90;;;6.80;64.40;;;;;;5050350;28;20108;-78
2022/03/26 01:35:55;;;;;;;43.28;23.92;;;6.80;64.50;;;;;;5050969;28;20501;-78
2022/03/26 01:38:21;;;;;;;40.22;21.80;;;6.80;64.70;;;;;;5050301;28;20060;-81
2022/03/26 01:40:48;;;;;;;51.00;26.17;;;6.70;64.80;;;;;;5065679;28;20029;-78
2022/03/26 01:43:14;;;;;;;49.83;22.77;;;6.70;65.10;;;;;;5050520;28;20030;-80
2022/03/26 01:45:40;;;;;;;43.15;22.52;;;6.60;65.20;;;;;;5051663;28;20038;-80
2022/03/26 01:48:06;;;;;;;42.67;23.30;;;6.60;65.40;;;;;;5056444;28;20024;-77
2022/03/26 01:50:33;;;;;;;40.33;21.08;;;6.60;65.60;;;;;;5052042;28;20029;-78
2022/03/26 01:52:59;;;;;;;44.25;23.08;;;6.50;65.70;;;;;;5050192;28;20025;-77
2022/03/26 01:55:28;;;;;;;44.95;23.75;;;6.50;65.80;;;;;;5049173;28;20029;-80
2022/03/26 01:57:55;;;;;;;49.42;25.55;;;6.50;66.00;;;;;;5049337;28;20030;-77
2022/03/26 02:00:21;;;;;;;39.72;22.15;;;6.50;66.10;;;;;;5049804;28;20021;-78
2022/03/26 02:02:47;;;;;;;46.05;24.63;;;6.60;66.10;;;;;;5065232;28;20013;-78
2022/03/26 02:05:15;;;;;;;43.75;23.13;;;6.50;66.20;;;;;;5068569;28;20242;-77
2022/03/26 02:07:44;;;;;;;41.65;23.73;;;6.50;66.50;;;;;;5056442;28;20474;-79
2022/03/26 02:10:11;;;;;;;40.88;21.83;;;6.50;66.70;;;;;;5049319;28;20021;-79
2022/03/26 02:12:37;;;;;;;38.85;21.17;;;6.40;66.70;;;;;;5049307;28;20048;-80
2022/03/26 02:15:04;;;;;;;35.47;20.02;;;6.40;66.80;;;;;;5051503;28;20033;-77
2022/03/26 02:17:31;;;;;;;38.72;20.77;;;6.40;67.50;;;;;;5049844;28;20053;-80
2022/03/26 02:19:58;;;;;;;40.58;21.92;;;6.50;66.90;;;;;;5049591;28;20482;-79
2022/03/26 02:22:25;;;;;;;41.10;22.75;;;6.40;66.80;;;;;;5048069;28;20041;-79
2022/03/26 02:24:52;;;;;;;41.20;23.20;;;6.40;67.10;;;;;;5049061;28;20033;-78
2022/03/26 02:27:18;;;;;;;44.78;24.05;;;6.30;67.10;;;;;;5049871;28;20025;-77
2022/03/26 02:29:44;;;;;;;41.22;22.75;;;6.30;67.30;;;;;;5049678;28;20068;-79
2022/03/26 02:32:10;;;;;;;45.33;22.83;;;6.30;67.50;;;;;;5049487;28;20109;-79
2022/03/26 02:34:37;;;;;;;47.47;23.98;;;6.30;67.70;;;;;;5064940;28;20029;-79
2022/03/26 02:37:03;;;;;;;48.20;25.88;;;6.30;67.80;;;;;;5048938;28;20109;-81
2022/03/26 02:39:29;;;;;;;48.03;23.98;;;6.30;67.80;;;;;;5049095;28;20021;-78
2022/03/26 02:41:55;;;;;;;47.30;24.80;;;6.30;67.80;;;;;;5049207;28;20034;-78
2022/03/26 02:44:24;;;;;;;49.65;24.90;;;6.30;67.70;;;;;;5048034;28;20029;-79
2022/03/26 02:46:50;;;;;;;47.17;25.13;;;6.30;67.80;;;;;;5049675;28;20029;-78
2022/03/26 02:49:16;;;;;;;48.67;25.17;;;6.20;67.90;;;;;;5048860;28;20013;-78
2022/03/26 02:51:42;;;;;;;51.03;25.52;;;6.20;68.10;;;;;;5048529;28;20026;-77
2022/03/26 02:54:18;;;;;;;50.47;25.00;;;6.20;68.40;;;;;;5062033;28;20021;-79
2022/03/26 02:56:48;;;;;;;44.05;23.75;;;6.20;68.50;;;;;;5035763;28;20021;-78
2022/03/26 02:59:14;;;;;;;41.72;23.08;;;6.20;68.50;;;;;;5033945;28;20108;-77
2022/03/26 03:01:40;;;;;;;44.83;24.20;;;6.20;68.60;;;;;;5034985;28;20601;-79
2022/03/26 03:04:06;;;;;;;40.30;21.77;;;6.10;68.70;;;;;;5036199;28;20056;-79
2022/03/26 03:06:32;;;;;;;45.03;23.75;;;6.10;68.90;;;;;;5036479;28;20034;-80
2022/03/26 03:08:58;;;;;;;52.38;24.83;;;6.10;69.10;;;;;;5033371;28;20053;-78
2022/03/26 03:11:24;;;;;;;49.85;24.25;;;6.10;69.10;;;;;;5035528;28;20045;-78
2022/03/26 03:13:50;;;;;;;48.17;26.33;;;6.00;69.20;;;;;;5036483;28;20474;-78
2022/03/26 03:16:15;;;;;;;49.33;26.45;;;5.90;69.20;;;;;;5035146;28;20032;-78
2022/03/26 03:18:42;;;;;;;44.78;25.00;;;6.00;69.30;;;;;;5036064;28;20036;-78
2022/03/26 03:21:08;;;;;;;44.50;24.00;;;5.90;69.30;;;;;;5038099;28;20055;-78
2022/03/26 03:23:33;;;;;;;45.90;23.38;;;5.90;69.50;;;;;;5050650;28;20025;-78
2022/03/26 03:25:59;;;;;;;39.78;21.67;;;5.80;69.50;;;;;;5055737;28;20028;-78
2022/03/26 03:28:25;;;;;;;47.60;24.92;;;5.80;69.60;;;;;;5059010;28;20025;-79
2022/03/26 03:30:51;;;;;;;50.72;25.77;;;5.90;69.60;;;;;;5058836;28;20539;-79
2022/03/26 03:33:17;;;;;;;48.33;24.80;;;5.90;69.60;;;;;;5057944;28;20055;-79
2022/03/26 03:35:43;;;;;;;43.85;22.83;;;5.80;69.60;;;;;;5059444;28;20036;-79
2022/03/26 03:38:09;;;;;;;41.58;22.95;;;5.80;69.90;;;;;;5056740;28;20028;-79
2022/03/26 03:40:34;;;;;;;38.47;21.92;;;5.80;70.10;;;;;;5059250;28;20051;-79
2022/03/26 03:43:00;;;;;;;40.22;21.38;;;5.80;70.40;;;;;;5058344;28;20120;-79
2022/03/26 03:45:26;;;;;;;37.53;19.27;;;5.70;70.50;;;;;;5058503;28;20025;-78
2022/03/26 03:47:52;;;;;;;33.65;19.17;;;5.70;70.50;;;;;;5056502;28;20021;-79
2022/03/26 03:50:18;;;;;;;34.15;19.23;;;5.80;70.60;;;;;;5056870;28;20048;-79
2022/03/26 03:52:44;;;;;;;39.15;20.67;;;5.80;70.50;;;;;;5056343;28;20021;-79
2022/03/26 03:55:10;;;;;;;39.72;19.83;;;5.80;70.40;;;;;;5040624;28;20022;-79
2022/03/26 03:57:43;;;;;;;40.30;20.30;;;5.80;70.50;;;;;;5037347;28;20022;-80
2022/03/26 04:00:14;;;;;;;37.80;19.25;;;5.80;70.60;;;;;;5037150;28;20030;-79
2022/03/26 04:02:40;;;;;;;36.80;21.30;;;5.90;70.50;;;;;;5035779;28;20057;-77
2022/03/26 04:05:11;;;;;;;41.70;21.85;;;5.90;70.40;;;;;;5038067;28;20010;-79
2022/03/26 04:07:37;;;;;;;41.75;22.50;;;5.80;70.40;;;;;;5046732;28;20029;-81
2022/03/26 04:10:07;;;;;;;38.25;21.58;;;5.80;70.60;;;;;;5055737;28;20052;-82
2022/03/26 04:12:39;;;;;;;35.55;20.23;;;5.80;70.80;;;;;;5055174;28;20026;-80
2022/03/26 04:15:10;;;;;;;36.10;20.80;;;5.80;70.70;;;;;;5055618;28;20022;-83
2022/03/26 04:17:36;;;;;;;36.80;20.60;;;5.80;70.80;;;;;;5056319;28;20032;-83
2022/03/26 04:20:08;;;;;;;34.42;19.08;;;5.80;70.90;;;;;;5055760;28;20089;-82
2022/03/26 04:22:34;;;;;;;39.25;20.67;;;5.80;70.90;;;;;;5046827;28;20037;-79
2022/03/26 04:25:00;;;;;;;43.55;23.33;;;5.80;71.00;;;;;;5041810;28;20391;-79
2022/03/26 04:27:25;;;;;;;45.90;23.90;;;5.70;71.10;;;;;;5035073;28;20018;-79
2022/03/26 04:29:51;;;;;;;44.42;24.67;;;5.60;71.30;;;;;;5034392;28;20505;-78
2022/03/26 04:32:17;;;;;;;43.00;23.48;;;5.60;71.50;;;;;;5036818;28;20022;-79
2022/03/26 04:34:43;;;;;;;41.20;23.17;;;5.50;71.70;;;;;;5035414;28;20038;-79
2022/03/26 04:37:08;;;;;;;39.03;22.35;;;5.40;72.10;;;;;;5038147;28;20117;-80
2022/03/26 04:39:34;;;;;;;40.80;22.95;;;5.40;72.30;;;;;;5037673;28;20026;-80
2022/03/26 04:42:00;;;;;;;40.47;21.75;;;5.40;72.60;;;;;;5034655;28;20018;-78
2022/03/26 04:44:26;;;;;;;42.08;23.08;;;5.30;72.70;;;;;;5047738;28;20029;-79
2022/03/26 04:46:52;;;;;;;43.30;23.65;;;5.30;72.80;;;;;;5054034;28;20025;-78
2022/03/26 04:49:19;;;;;;;46.28;23.98;;;5.30;73.00;;;;;;5052348;28;20062;-77
2022/03/26 04:51:45;;;;;;;43.30;24.13;;;5.30;73.10;;;;;;5049639;28;20017;-77
2022/03/26 04:54:11;;;;;;;46.20;25.88;;;5.20;73.20;;;;;;5054707;28;20175;-77
2022/03/26 04:56:36;;;;;;;45.05;24.33;;;5.20;73.40;;;;;;5053411;28;20048;-78
2022/03/26 04:59:02;;;;;;;37.72;21.88;;;5.10;73.50;;;;;;5059933;28;20032;-79
2022/03/26 05:01:28;;;;;;;39.38;20.23;;;5.10;73.90;;;;;;5070870;28;20124;-81
2022/03/26 05:03:54;;;;;;;34.78;20.35;;;5.20;74.10;;;;;;5053611;28;20493;-78
2022/03/26 05:06:19;;;;;;;34.55;19.48;;;5.20;73.80;;;;;;5053179;28;20056;-79
2022/03/26 05:08:45;;;;;;;46.72;23.75;;;5.20;73.50;;;;;;5052262;28;20048;-78
2022/03/26 05:11:11;;;;;;;45.47;22.90;;;5.20;73.20;;;;;;5056767;28;20056;-78
2022/03/26 05:13:37;;;;;;;40.63;22.45;;;5.20;73.00;;;;;;5053587;28;20174;-78
2022/03/26 05:16:03;;;;;;;40.17;22.27;;;5.20;73.20;;;;;;5056650;28;20221;-78
2022/03/26 05:18:29;;;;;;;37.20;20.00;;;5.20;73.40;;;;;;5056615;28;20457;-79
2022/03/26 05:20:56;;;;;;;33.65;18.50;;;5.20;73.60;;;;;;5058293;28;20037;-79
2022/03/26 05:23:23;;;;;;;33.00;19.23;;;5.20;73.40;;;;;;5057590;28;20072;-77
2022/03/26 05:25:49;;;;;;;42.10;22.83;;;5.30;73.30;;;;;;5056597;28;20552;-78
2022/03/26 05:28:15;;;;;;;40.75;22.92;;;5.30;73.00;;;;;;5048674;28;20057;-79
2022/03/26 05:30:41;;;;;;;37.28;21.23;;;5.30;73.10;;;;;;5037729;28;20108;-79
2022/03/26 05:33:07;;;;;;;34.65;20.00;;;5.30;73.40;;;;;;5044476;28;20445;-77
2022/03/26 05:35:32;;;;;;;33.25;18.70;;;5.30;73.50;;;;;;5058421;28;20037;-79
2022/03/26 05:37:58;;;;;;;34.05;18.45;;;5.30;73.30;;;;;;5059515;28;20025;-80
2022/03/26 05:40:24;;;;;;;32.65;18.08;;;5.40;73.70;;;;;;5059013;28;20013;-78
2022/03/26 05:42:50;;;;;;;37.65;20.40;;;5.50;72.70;;;;;;5059853;28;20477;-80
2022/03/26 05:45:17;;;;;;;34.67;18.33;;;5.60;72.30;;;;;;5059923;28;20345;-76
2022/03/26 05:47:43;;;;;;;36.17;19.48;;;5.60;71.90;;;;;;5056382;28;20021;-79
2022/03/26 05:50:11;;;;;;;31.10;17.35;;;5.70;71.80;;;;;;5068256;28;20068;-78
2022/03/26 05:52:37;;;;;;;34.08;18.58;;;5.80;71.50;;;;;;5059018;28;20029;-78
2022/03/26 05:55:04;;;;;;;30.23;17.40;;;5.80;71.20;;;;;;5050582;28;20032;-79
2022/03/26 05:57:29;;;;;;;28.40;15.52;;;5.90;71.10;;;;;;5060603;28;20406;-79
2022/03/26 05:59:55;;;;;;;28.48;16.88;;;6.00;71.10;;;;;;5059292;28;20025;-80
2022/03/26 06:02:21;;;;;;;31.73;18.50;;;6.10;71.00;;;;;;5060609;28;20025;-78
2022/03/26 06:04:47;;;;;;;34.40;19.55;;;6.20;70.90;;;;;;5064043;28;20052;-80
2022/03/26 06:07:13;;;;;;;34.85;19.92;;;6.20;70.60;;;;;;5070593;28;20055;-77
2022/03/26 06:09:39;;;;;;;36.97;20.52;;;6.20;70.40;;;;;;5076417;28;20052;-76
2022/03/26 06:12:06;;;;;;;37.90;21.02;;;6.20;70.90;;;;;;5072174;28;20025;-78
2022/03/26 06:14:32;;;;;;;49.17;24.98;;;6.30;70.30;;;;;;5059999;28;20059;-78
2022/03/26 06:16:58;;;;;;;42.28;23.27;;;6.30;70.10;;;;;;5048120;28;20017;-80
2022/03/26 06:19:26;;;;;;;43.75;24.48;;;6.30;69.90;;;;;;5040302;28;20031;-79
2022/03/26 06:21:52;;;;;;;42.78;23.70;;;6.40;69.60;;;;;;5044564;28;20021;-78
2022/03/26 06:24:18;;;;;;;45.60;23.85;;;6.40;69.20;;;;;;5052856;28;20024;-78
2022/03/26 06:26:44;;;;;;;42.28;23.20;;;6.40;69.10;;;;;;5043072;28;20407;-79
2022/03/26 06:29:12;;;;;;;39.15;22.52;;;6.50;68.90;;;;;;5059997;28;20081;-77
2022/03/26 06:31:38;;;;;;;44.45;23.60;;;6.60;68.70;;;;;;5068579;28;20021;-77
2022/03/26 06:34:04;;;;;;;39.85;22.17;;;6.60;68.40;;;;;;5070915;28;20040;-77
2022/03/26 06:36:30;;;;;;;36.88;20.88;;;6.70;68.10;;;;;;5068102;28;20089;-79
2022/03/26 06:38:56;;;;;;;49.90;24.25;;;6.80;67.90;;;;;;5067942;28;20021;-79
2022/03/26 06:41:23;;;;;;;42.55;24.27;;;6.80;67.30;;;;;;5072283;28;20036;-78
2022/03/26 06:43:49;;;;;;;44.20;23.98;;;6.90;67.00;;;;;;5075668;28;20048;-79
2022/03/26 06:46:14;;;;;;;42.67;24.10;;;6.90;67.10;;;;;;5062928;28;20116;-79
2022/03/26 06:48:40;;;;;;;47.30;25.27;;;7.00;67.30;;;;;;5060712;28;20029;-78
2022/03/26 06:51:08;;;;;;;42.38;24.27;;;7.00;67.30;;;;;;5061035;28;20028;-79
2022/03/26 06:53:35;;;;;;;43.47;24.38;;;7.10;67.20;;;;;;5062547;28;20075;-80
2022/03/26 06:56:08;;;;;;;40.83;23.98;;;7.20;67.10;;;;;;5039006;28;20367;-79
2022/03/26 06:58:35;;;;;;;54.13;27.73;;;7.30;66.80;;;;;;5040384;28;20037;-80
2022/03/26 07:01:01;;;;;;;49.03;26.52;;;7.40;66.20;;;;;;5040940;28;20053;-81
2022/03/26 07:03:30;;;;;;;46.95;25.88;;;7.50;65.60;;;;;;5054405;28;20036;-80
2022/03/26 07:05:56;;;;;;;46.03;26.25;;;7.60;65.50;;;;;;5053323;28;20033;-80
2022/03/26 07:08:23;;;;;;;42.85;24.45;;;7.70;65.30;;;;;;5053886;28;20527;-81
2022/03/26 07:10:48;;;;;;;48.55;26.25;;;7.80;65.00;;;;;;5052417;28;20025;-80
2022/03/26 07:13:15;;;;;;;46.92;24.88;;;7.80;64.60;;;;;;5038862;28;20101;-81
2022/03/26 07:15:43;;;;;;;52.05;26.05;;;7.80;64.40;;;;;;5055881;28;20021;-78
2022/03/26 07:18:11;;;;;;;49.13;26.02;;;7.90;63.90;;;;;;5057963;28;20025;-79
2022/03/26 07:20:36;;;;;;;44.05;24.40;;;8.10;63.50;;;;;;5057160;28;20386;-80
2022/03/26 07:23:02;;;;;;;51.22;25.17;;;8.20;63.10;;;;;;5057485;28;20069;-80
2022/03/26 07:25:29;;;;;;;45.95;25.20;;;8.40;62.60;;;;;;5046357;28;20048;-81
2022/03/26 07:27:55;;;;;;;52.78;27.30;;;8.50;61.70;;;;;;5040593;28;20029;-80
2022/03/26 07:30:21;;;;;;;49.17;27.50;;;8.70;61.10;;;;;;5060305;28;20420;-80
2022/03/26 07:32:46;;;;;;;49.30;25.65;;;8.70;60.60;;;;;;5058885;28;20040;-80
2022/03/26 07:35:12;;;;;;;41.97;25.02;;;8.80;60.40;;;;;;5059806;28;20021;-81
2022/03/26 07:37:38;;;;;;;38.72;22.83;;;8.90;60.20;;;;;;5060174;28;20032;-80
2022/03/26 07:40:05;;;;;;;42.40;23.67;;;9.00;60.00;;;;;;5060202;28;20017;-79
2022/03/26 07:42:31;;;;;;;41.92;24.15;;;9.30;59.80;;;;;;5044180;28;20045;-79
2022/03/26 07:44:57;;;;;;;42.58;24.40;;;9.50;59.30;;;;;;5064421;28;20118;-81
2022/03/26 07:47:22;;;;;;;37.10;22.13;;;9.50;58.50;;;;;;5068725;28;20088;-79
2022/03/26 07:49:48;;;;;;;48.55;26.83;;;9.70;58.20;;;;;;5068856;28;20033;-80
2022/03/26 07:52:14;;;;;;;48.90;25.88;;;9.80;56.80;;;;;;5070746;28;20052;-80
2022/03/26 07:54:40;;;;;;;39.35;24.23;;;9.80;57.10;;;;;;5059393;28;20009;-80
2022/03/26 07:57:06;;;;;;;42.47;22.45;;;9.90;56.80;;;;;;5058896;28;20009;-80
2022/03/26 07:59:32;;;;;;;37.80;21.65;;;10.20;56.60;;;;;;5061485;28;20029;-79
2022/03/26 08:01:58;;;;;;;39.78;22.73;;;10.40;56.10;;;;;;5070436;28;20016;-77
2022/03/26 08:04:24;;;;;;;38.33;22.27;;;10.60;55.60;;;;;;5068811;28;20041;-81
2022/03/26 08:06:55;;;;;;;37.92;21.83;;;10.70;55.30;;;;;;5068097;28;20029;-84
2022/03/26 08:09:21;;;;;;;37.47;22.05;;;10.90;55.10;;;;;;5068058;28;20021;-79
2022/03/26 08:11:46;;;;;;;40.13;23.02;;;11.20;54.60;;;;;;5068720;28;20025;-77
2022/03/26 08:14:13;;;;;;;45.10;26.75;;;11.40;53.90;;;;;;5075925;28;20029;-79
2022/03/26 08:16:39;;;;;;;44.28;26.50;;;11.40;53.30;;;;;;5057605;28;20040;-79
2022/03/26 08:19:06;;;;;;;37.83;23.40;;;11.30;53.30;;;;;;5059183;28;20105;-80
2022/03/26 08:21:35;;;;;;;36.47;23.00;;;11.40;53.90;;;;;;5062015;28;20482;-80
2022/03/26 08:24:04;;;;;;;34.00;21.50;;;11.50;53.70;;;;;;5057971;28;20032;-79
2022/03/26 08:26:29;;;;;;;44.58;25.20;;;11.80;53.60;;;;;;5062353;28;20056;-80
2022/03/26 08:28:58;;;;;;;42.40;26.52;;;11.90;52.60;;;;;;5051088;28;20036;-80
2022/03/26 08:31:26;;;;;;;41.15;24.77;;;12.10;52.10;;;;;;5057358;28;20033;-80
2022/03/26 08:33:52;;;;;;;46.88;27.83;;;12.10;52.10;;;;;;5057980;28;20371;-79
2022/03/26 08:36:18;;;;;;;39.13;24.42;;;12.20;51.40;;;;;;5040303;28;20036;-79
2022/03/26 08:38:45;;;;;;;46.53;24.90;;;12.30;51.70;;;;;;5039866;28;20513;-79
2022/03/26 08:41:16;;;;;;;47.53;28.00;;;12.50;51.70;;;;;;5039623;28;20022;-79
2022/03/26 08:43:42;;;;;;;44.33;26.10;;;12.50;51.30;;;;;;5039152;28;20043;-80
2022/03/26 08:46:08;;;;;;;40.80;24.60;;;12.60;50.60;;;;;;5053895;28;20067;-78
2022/03/26 08:48:34;;;;;;;44.80;25.35;;;12.70;50.60;;;;;;5065930;28;20037;-77
2022/03/26 08:51:00;;;;;;;39.65;22.90;;;12.80;49.80;;;;;;5079467;28;20036;-77
2022/03/26 08:53:26;;;;;;;36.38;22.05;;;13.10;50.00;;;;;;5079725;28;20136;-78
2022/03/26 08:55:52;;;;;;;41.25;23.85;;;13.60;49.40;;;;;;5079993;28;20043;-77
2022/03/26 08:58:19;;;;;;;45.90;27.98;;;13.90;48.10;;;;;;5079725;28;20071;-77
2022/03/26 09:00:48;;;;;;;44.13;27.92;;;13.80;47.30;;;;;;5062676;28;20034;-78
2022/03/26 09:03:20;;;;;;;49.10;28.13;;;14.00;46.60;;;;;;5044000;28;20048;-79
2022/03/26 09:05:49;;;;;;;39.40;23.77;;;14.10;46.60;;;;;;5048608;28;20033;-78
2022/03/26 09:08:15;;;;;;;34.05;21.52;;;14.20;47.20;;;;;;5062108;28;20359;-80
2022/03/26 09:10:41;;;;;;;37.45;23.95;;;14.70;46.90;;;;;;5061841;28;20063;-78
2022/03/26 09:13:08;;;;;;;37.35;24.15;;;15.10;45.70;;;;;;5058392;28;20028;-82
2022/03/26 09:15:34;;;;;;;42.58;25.23;;;15.40;44.90;;;;;;5060467;28;20082;-78
2022/03/26 09:18:00;;;;;;;34.92;23.48;;;15.50;44.20;;;;;;5060157;28;20029;-78
2022/03/26 09:20:26;;;;;;;41.00;26.10;;;15.60;44.40;;;;;;5059842;28;20017;-79
2022/03/26 09:22:53;;;;;;;47.55;27.20;;;15.70;43.70;;;;;;5054179;28;20040;-79
2022/03/26 09:25:20;;;;;;;40.80;26.45;;;15.50;43.40;;;;;;5060212;28;20024;-81
2022/03/26 09:27:46;;;;;;;43.25;26.58;;;15.40;44.10;;;;;;5054133;28;20017;-80
2022/03/26 09:30:12;;;;;;;43.97;27.25;;;15.30;44.40;;;;;;5050021;28;20028;-78
2022/03/26 09:32:38;;;;;;;49.70;28.58;;;15.30;44.50;;;;;;5074740;28;20028;-78
2022/03/26 09:35:05;;;;;;;49.83;30.15;;;15.30;44.40;;;;;;5061763;28;20021;-78
2022/03/26 09:37:30;;;;;;;44.45;28.33;;;15.10;44.60;;;;;;5076890;28;20040;-78
2022/03/26 09:39:57;;;;;;;45.50;27.95;;;15.10;45.20;;;;;;5059284;28;20099;-79
2022/03/26 09:42:24;;;;;;;55.90;29.98;;;15.10;45.40;;;;;;5059304;28;20032;-80
2022/03/26 09:44:51;;;;;;;50.22;28.30;;;15.20;44.80;;;;;;5058916;28;20067;-79
2022/03/26 09:47:17;;;;;;;54.25;28.63;;;15.20;44.90;;;;;;5059550;28;20022;-78
2022/03/26 09:49:43;;;;;;;44.35;26.80;;;15.20;45.00;;;;;;5059048;28;20648;-80
2022/03/26 09:52:09;;;;;;;41.45;25.88;;;15.30;45.30;;;;;;5059350;28;20021;-77
2022/03/26 09:54:36;;;;;;;42.40;25.73;;;15.60;45.30;;;;;;5059419;28;20481;-78
2022/03/26 09:57:03;;;;;;;50.97;29.67;;;16.00;44.80;;;;;;5059451;28;20033;-79
2022/03/26 09:59:29;;;;;;;44.88;26.50;;;16.20;43.50;;;;;;5048355;28;20021;-78
2022/03/26 10:01:55;;;;;;;42.30;27.38;;;16.20;43.60;;;;;;5038571;28;20505;-77
2022/03/26 10:04:22;;;;;;;49.13;28.63;;;16.20;43.90;;;;;;5040122;28;20112;-77
2022/03/26 10:06:55;;;;;;;49.22;29.15;;;16.20;42.80;;;;;;5040909;28;20014;-78
2022/03/26 10:09:41;;;;;;;48.92;29.83;;;16.10;43.40;;;;;;5057184;28;20482;-78
2022/03/26 10:12:11;;;;;;;53.95;29.92;;;16.10;43.10;;;;;;5061833;28;20036;-81
2022/03/26 10:14:40;;;;;;;47.05;29.00;;;16.20;43.10;;;;;;5067632;28;20021;-78
2022/03/26 10:17:22;;;;;;;44.45;26.98;;;16.20;42.80;;;;;;5072819;28;20040;-77
2022/03/26 10:20:01;;;;;;;52.88;28.10;;;16.40;43.30;;;;;;5058674;28;20505;-78
2022/03/26 10:22:33;;;;;;;43.53;27.38;;;16.60;42.10;;;;;;5060114;28;20036;-78
2022/03/26 10:25:15;;;;;;;43.22;28.30;;;16.80;42.20;;;;;;5065139;28;20048;-78
2022/03/26 10:27:49;;;;;;;49.50;28.50;;;16.90;41.80;;;;;;5063128;28;20434;-77
2022/03/26 10:30:17;;;;;;;49.28;29.13;;;16.90;42.10;;;;;;5047589;28;20029;-79
2022/03/26 10:32:46;;;;;;;49.33;27.73;;;16.90;41.70;;;;;;5048280;28;20029;-80
2022/03/26 10:35:22;;;;;;;45.90;28.77;;;17.00;41.80;;;;;;5049840;28;20033;-78
2022/03/26 10:37:51;;;;;;;44.90;29.52;;;17.10;41.50;;;;;;5048691;28;20030;-81
2022/03/26 10:40:43;;;;;;;46.90;29.10;;;17.20;41.60;;;;;;5050937;28;20025;-81
2022/03/26 10:43:13;;;;;;;51.35;30.77;;;17.20;41.20;;;;;;5049965;28;20053;-78
2022/03/26 10:46:02;;;;;;;43.22;28.55;;;17.10;41.50;;;;;;5054899;28;20033;-78
2022/03/26 10:48:30;;;;;;;49.00;29.75;;;17.00;41.80;;;;;;5056220;28;20047;-77
2022/03/26 10:50:58;;;;;;;48.65;28.55;;;17.10;42.40;;;;;;5073361;28;20025;-78
2022/03/26 10:53:37;;;;;;;48.33;29.27;;;17.30;42.00;;;;;;5067069;28;20025;-77
2022/03/26 10:56:04;;;;;;;44.67;27.95;;;17.70;40.90;;;;;;5068131;28;20077;-79
2022/03/26 10:58:31;;;;;;;46.30;27.77;;;17.70;40.50;;;;;;5054187;28;20026;-79
2022/03/26 11:00:57;;;;;;;48.72;28.08;;;17.70;40.70;;;;;;5051991;28;20058;-78
2022/03/26 11:03:24;;;;;;;47.15;28.65;;;17.80;40.50;;;;;;5051627;28;20045;-78
2022/03/26 11:05:54;;;;;;;46.88;27.25;;;17.80;40.30;;;;;;5046309;28;20480;-79
2022/03/26 11:08:20;;;;;;;46.30;29.00;;;17.90;40.20;;;;;;5046165;28;20032;-78
2022/03/26 11:10:47;;;;;;;45.65;28.50;;;17.80;40.20;;;;;;5063815;28;20056;-76
2022/03/26 11:13:15;;;;;;;48.67;29.33;;;17.80;40.10;;;;;;5047603;28;20033;-78
2022/03/26 11:15:46;;;;;;;43.63;27.98;;;17.80;40.10;;;;;;5047386;28;20029;-78
2022/03/26 11:18:12;;;;;;;50.65;27.00;;;17.80;40.20;;;;;;5061419;28;20029;-80
2022/03/26 11:21:07;;;;;;;52.35;29.23;;;17.80;40.00;;;;;;5065696;28;20021;-79
2022/03/26 11:23:42;;;;;;;40.05;26.95;;;17.90;39.40;;;;;;5064177;28;20040;-78
2022/03/26 11:26:32;;;;;;;39.70;25.92;;;18.00;39.70;;;;;;5067917;28;20029;-79
2022/03/26 11:29:35;;;;;;;45.85;27.08;;;18.00;39.00;;;;;;5053651;28;20040;-79
2022/03/26 11:32:16;;;;;;;41.05;26.10;;;18.00;37.60;;;;;;5047478;28;20032;-79
2022/03/26 11:34:42;;;;;;;43.40;27.08;;;17.90;37.90;;;;;;5048904;28;20042;-78
2022/03/26 11:37:12;;;;;;;41.03;26.02;;;18.00;37.80;;;;;;5064936;28;20021;-77
2022/03/26 11:39:49;;;;;;;32.78;22.80;;;18.00;37.90;;;;;;5049460;28;20018;-78
2022/03/26 11:42:21;;;;;;;34.22;23.17;;;18.30;38.40;;;;;;5070768;22;20078;-79
2022/03/26 11:50:41;;;;;;;40.45;25.58;;;18.70;38.10;;;;;;5039876;28;20022;-78
2022/03/26 11:50:43;;;;;;;36.75;24.90;;;19.20;35.20;;;;;;5036758;28;20020;-78
2022/03/26 11:53:10;;;;;;;39.83;25.35;;;19.30;35.10;;;;;;5038851;28;20085;-78
2022/03/26 11:55:45;;;;;;;38.38;24.73;;;19.30;34.70;;;;;;5042816;28;20040;-80
2022/03/26 11:58:17;;;;;;;42.05;25.23;;;19.30;35.10;;;;;;5036605;28;20052;-79
2022/03/26 12:00:52;;;;;;;36.67;25.27;;;19.70;35.00;;;;;;5036284;28;20087;-79
2022/03/26 12:03:22;;;;;;;39.88;24.30;;;19.70;35.10;;;;;;5037034;28;20033;-79
2022/03/26 12:08:38;;;;;;;42.33;26.45;;;19.70;34.70;;;;;;5038904;28;20421;-79
2022/03/26 12:11:04;;;;;;;38.17;26.25;;;19.50;34.70;;;;;;5037397;28;20026;-80
2022/03/26 12:13:34;;;;;;;40.92;26.88;;;19.20;34.70;;;;;;5035237;28;20025;-80
2022/03/26 12:16:02;;;;;;;37.50;25.90;;;19.10;34.90;;;;;;5037117;28;20021;-81
2022/03/26 12:18:38;;;;;;;41.47;24.27;;;18.90;35.00;;;;;;5037872;28;20037;-80
2022/03/26 12:21:23;;;;;;;36.15;25.67;;;18.70;35.20;;;;;;5039533;28;20038;-79
2022/03/26 12:23:49;;;;;;;33.63;23.73;;;18.80;35.50;;;;;;5038848;28;20025;-82
2022/03/26 12:26:15;;;;;;;36.58;24.23;;;19.00;35.40;;;;;;5041490;28;20389;-80
2022/03/26 12:28:42;;;;;;;38.55;24.23;;;19.20;35.00;;;;;;5038587;28;20058;-79
2022/03/26 12:31:13;;;;;;;31.90;22.67;;;19.30;35.00;;;;;;5040741;28;20478;-79
2022/03/26 12:33:44;;;;;;;33.53;23.23;;;19.50;34.70;;;;;;5039231;28;20060;-79
2022/03/26 12:36:11;;;;;;;31.10;21.97;;;19.50;34.20;;;;;;5039284;28;20029;-79
2022/03/26 12:38:38;;;;;;;38.15;23.80;;;19.40;34.20;;;;;;5039415;28;20363;-80
2022/03/26 12:41:07;;;;;;;34.40;23.95;;;19.40;34.40;;;;;;5043572;28;20052;-79